Sigfox identifier Datetime Temperature Humidity SNR
003938E9 2018-10-09 09:15:20 20.8 39 19.8
003938E9 2018-10-09 08:14:24 20.7 39 19.9
003938E9 2018-10-09 07:13:28 20.6 38 19.9
003938E9 2018-10-09 06:12:33 20.7 38 20
003938E9 2018-10-09 05:11:38 20.7 38 19.8
003938E9 2018-10-09 02:08:50 20.8 37 19.8
003938E9 2018-10-09 01:07:54 20.8 37 19.9
003938E9 2018-10-09 00:06:57 20.8 37 20.2
003938E9 2018-10-08 23:06:01 20.8 37 20.4
003938E9 2018-10-08 22:05:04 20.8 37 20.7
003938E9 2018-10-08 21:04:06 20.8 37 21.1
003938E9 2018-10-08 20:03:10 20.8 36 21.5
003938E9 2018-10-08 19:02:11 20.9 36 22
003938E9 2018-10-08 18:01:15 20.9 36 22.6
003938E9 2018-10-08 17:00:20 20.8 36 16.4
003938E9 2018-10-08 15:59:20 20.8 36 16.9
003938E9 2018-10-08 13:57:29 20.8 36 14.4
003938E9 2018-10-08 12:56:30 20.8 35 14.7
003938E9 2018-10-08 11:55:33 20.6 35 15.9
003938E9 2018-10-08 10:54:36 20.7 32 15
003938E9 2018-10-08 09:53:35 20.5 43 0